createdAt,value
2018-12-24T00:01:38.799Z,100089.20
2018-12-24T00:06:40.799Z,100085.45
2018-12-24T00:11:42.790Z,100117.42
2018-12-24T00:16:45.075Z,100148.02
2018-12-24T00:21:48.318Z,100172.52
2018-12-24T00:26:50.361Z,100174.53
2018-12-24T00:31:52.318Z,100166.88
2018-12-24T00:36:54.575Z,100183.16
2018-12-24T00:41:59.156Z,100177.43
2018-12-24T00:47:01.186Z,100186.92
2018-12-24T00:52:03.526Z,100196.56
2018-12-24T00:57:05.488Z,100221.84
2018-12-24T01:02:07.476Z,100230.23
2018-12-24T01:07:09.624Z,100257.28
2018-12-24T01:12:14.206Z,100264.10
2018-12-24T01:17:16.386Z,100271.86
2018-12-24T01:22:18.420Z,100286.42
2018-12-24T01:27:20.736Z,100321.98
2018-12-24T01:32:22.847Z,100345.76
2018-12-24T01:37:25.058Z,100354.90
2018-12-24T01:42:33.313Z,100379.86
2018-12-24T01:47:31.688Z,100397.36
2018-12-24T01:52:33.695Z,100420.80
2018-12-24T01:57:35.920Z,100436.94
2018-12-24T02:02:37.918Z,100443.95
2018-12-24T02:07:39.921Z,100461.06
2018-12-24T02:12:44.160Z,100472.05
2018-12-24T02:17:46.139Z,100504.92
2018-12-24T02:22:48.425Z,100513.44
2018-12-24T02:27:50.402Z,100525.63
2018-12-24T02:32:52.365Z,100526.25
2018-12-24T02:37:54.431Z,100534.82
2018-12-24T02:42:56.408Z,100550.08
2018-12-24T02:47:58.470Z,100567.20
2018-12-24T02:53:00.528Z,100588.90
2018-12-24T02:58:02.521Z,100587.43
2018-12-24T03:03:04.547Z,100605.46
2018-12-24T03:08:06.534Z,100617.55
2018-12-24T03:13:08.770Z,100637.45
2018-12-24T03:18:10.763Z,100640.36
2018-12-24T03:23:12.776Z,100642.86
2018-12-24T03:28:15.131Z,100645.82
2018-12-24T03:33:17.298Z,100646.89
2018-12-24T03:38:19.678Z,100684.41
2018-12-24T03:43:21.726Z,100707.69
2018-12-24T03:48:23.793Z,100714.56
2018-12-24T03:53:25.803Z,100727.06
2018-12-24T03:58:29.459Z,100729.39
2018-12-24T04:03:31.778Z,100746.19
2018-12-24T04:08:33.943Z,100749.30
2018-12-24T04:13:35.958Z,100760.33
2018-12-24T04:18:40.261Z,100770.97
2018-12-24T04:23:42.268Z,100790.39
2018-12-24T04:28:44.268Z,100808.19
2018-12-24T04:33:46.278Z,100818.86
2018-12-24T04:38:48.369Z,100833.11
2018-12-24T04:43:50.721Z,100838.26
2018-12-24T04:48:52.705Z,100856.69
2018-12-24T04:53:54.712Z,100872.04
2018-12-24T04:58:57.006Z,100882.54
2018-12-24T05:04:01.113Z,100892.98
2018-12-24T05:09:05.312Z,100905.36
2018-12-24T05:14:07.415Z,100919.14
2018-12-24T05:19:09.502Z,100912.82
2018-12-24T05:24:11.574Z,100918.58
2018-12-24T05:29:13.672Z,100937.36
2018-12-24T05:34:15.662Z,100951.50
2018-12-24T05:39:17.892Z,100972.47
2018-12-24T05:44:19.926Z,100989.66
2018-12-24T05:49:22.013Z,101008.22
2018-12-24T05:54:24.033Z,101017.47
2018-12-24T05:59:26.021Z,101034.71
2018-12-24T06:04:28.030Z,101051.98
2018-12-24T06:09:30.384Z,101057.84
2018-12-24T06:14:32.535Z,101079.08
2018-12-24T06:19:34.671Z,101109.22
2018-12-24T06:24:36.822Z,101123.12
2018-12-24T06:29:38.817Z,101143.47
2018-12-24T06:34:40.896Z,101154.70
2018-12-24T06:39:42.981Z,101161.27
2018-12-24T06:44:44.981Z,101190.00
2018-12-24T06:49:47.024Z,101208.44
2018-12-24T06:54:49.162Z,101225.75
2018-12-24T06:59:51.359Z,101236.73
2018-12-24T07:04:53.750Z,101252.23
2018-12-24T07:09:55.839Z,101262.44
2018-12-24T07:14:57.823Z,101267.22
2018-12-24T07:20:00.099Z,101288.23
2018-12-24T07:25:02.068Z,101299.08
2018-12-24T07:30:05.432Z,101313.28
2018-12-24T07:35:07.410Z,101327.64
2018-12-24T07:40:09.450Z,101337.25
2018-12-24T07:45:11.455Z,101347.33
2018-12-24T07:50:13.662Z,101355.63
2018-12-24T07:55:15.765Z,101370.05
2018-12-24T08:00:18.015Z,101381.89
2018-12-24T08:05:20.033Z,101382.72
2018-12-24T08:10:22.070Z,101390.20
2018-12-24T08:15:24.331Z,101393.27
2018-12-24T08:20:26.289Z,101393.72
2018-12-24T08:25:28.303Z,101399.52
2018-12-24T08:30:32.097Z,101402.52
2018-12-24T08:35:34.131Z,101414.84
2018-12-24T08:40:36.219Z,101430.58
2018-12-24T08:45:38.261Z,101434.95
2018-12-24T08:50:40.411Z,101442.30
2018-12-24T08:55:42.453Z,101459.09
2018-12-24T09:00:44.421Z,101469.78
2018-12-24T09:05:46.466Z,101483.78
2018-12-24T09:10:48.526Z,101495.70
2018-12-24T09:15:50.534Z,101503.55
2018-12-24T09:20:53.039Z,101516.32
2018-12-24T09:25:55.208Z,101531.02
2018-12-24T09:30:57.217Z,101526.46
2018-12-24T09:35:59.250Z,101541.62
2018-12-24T09:41:01.378Z,101545.83
2018-12-24T09:46:03.402Z,101551.56
2018-12-24T09:51:05.780Z,101560.48
2018-12-24T09:56:07.839Z,101571.20
2018-12-24T10:01:09.858Z,101574.45
2018-12-24T10:06:15.987Z,101576.63
2018-12-24T10:11:18.080Z,101583.00
2018-12-24T10:16:20.120Z,101585.45
2018-12-24T10:21:22.144Z,101595.23
2018-12-24T10:26:24.160Z,101599.47
2018-12-24T10:31:26.243Z,101598.16
2018-12-24T10:36:28.433Z,101608.16
2018-12-24T10:41:30.556Z,101622.41
2018-12-24T10:46:32.530Z,101620.39
2018-12-24T10:51:34.552Z,101614.45
2018-12-24T10:56:36.609Z,101616.05
2018-12-24T11:01:38.652Z,101612.63
2018-12-24T11:06:40.940Z,101619.57
2018-12-24T11:11:42.938Z,101625.88
2018-12-24T11:16:44.990Z,101629.16
2018-12-24T11:21:46.995Z,101627.20
2018-12-24T11:26:49.142Z,101629.11
2018-12-24T11:31:51.440Z,101625.39
2018-12-24T11:36:53.462Z,101618.55
2018-12-24T11:41:55.526Z,101625.88
2018-12-24T11:46:57.503Z,101622.72
2018-12-24T11:51:59.585Z,101623.59
2018-12-24T11:57:01.648Z,101626.10
2018-12-24T12:02:09.994Z,101634.11
2018-12-24T12:07:07.681Z,101631.86
2018-12-24T12:12:09.744Z,101630.84
2018-12-24T12:17:12.262Z,101627.34
2018-12-24T12:22:14.330Z,101632.73
2018-12-24T12:27:16.343Z,101638.89
2018-12-24T12:32:18.746Z,101645.38
2018-12-24T12:37:20.890Z,101647.17
2018-12-24T12:42:22.933Z,101658.56
2018-12-24T12:47:25.037Z,101661.80
2018-12-24T12:52:27.544Z,101660.17
2018-12-24T12:57:29.561Z,101670.59
2018-12-24T13:02:32.671Z,101678.98
2018-12-24T13:07:34.920Z,101695.17
2018-12-24T13:12:37.259Z,101715.53
2018-12-24T13:17:39.642Z,101730.21
2018-12-24T13:22:41.665Z,101735.39
2018-12-24T13:27:43.724Z,101751.09
2018-12-24T13:32:45.997Z,101755.97
2018-12-24T13:37:48.036Z,101770.84
2018-12-24T13:42:50.233Z,101793.09
2018-12-24T13:47:52.367Z,101800.77
2018-12-24T13:52:54.591Z,101791.47
2018-12-24T13:57:56.608Z,101790.70
2018-12-24T14:02:58.637Z,101822.65
2018-12-24T14:08:00.700Z,101818.81
2018-12-24T14:13:02.707Z,101835.64
2018-12-24T14:18:04.727Z,101842.77
2018-12-24T14:23:06.875Z,101856.05
2018-12-24T14:28:08.926Z,101850.28
2018-12-24T14:33:13.966Z,101861.37
2018-12-24T14:38:18.059Z,101873.19
2018-12-24T14:43:20.116Z,101886.00
2018-12-24T14:48:22.244Z,101901.87
2018-12-24T14:53:24.533Z,101889.12
2018-12-24T14:58:26.540Z,101891.34
2018-12-24T15:03:28.620Z,101904.45
2018-12-24T15:08:30.748Z,101914.64
2018-12-24T15:13:33.038Z,101919.48
2018-12-24T15:18:35.375Z,101923.42
2018-12-24T15:23:37.476Z,101941.14
2018-12-24T15:28:40.266Z,101958.81
2018-12-24T15:33:42.396Z,101958.92
2018-12-24T15:38:44.413Z,101980.12
2018-12-24T15:43:46.909Z,101987.80
2018-12-24T15:48:49.201Z,102003.31
2018-12-24T15:53:51.287Z,102006.83
2018-12-24T15:58:53.394Z,102024.09
2018-12-24T16:03:55.615Z,102025.05
2018-12-24T16:08:57.891Z,102023.31
2018-12-24T16:14:00.296Z,102026.91
2018-12-24T16:19:02.550Z,102034.41
2018-12-24T16:24:04.726Z,102036.24
2018-12-24T16:29:06.707Z,102034.92
2018-12-24T16:34:08.793Z,102033.65
2018-12-24T16:39:10.836Z,102039.38
2018-12-24T16:44:12.897Z,102051.30
2018-12-24T16:49:15.247Z,102079.93
2018-12-24T16:54:17.465Z,102082.20
2018-12-24T16:59:19.437Z,102091.48
2018-12-24T17:04:21.493Z,102102.07
2018-12-24T17:09:23.540Z,102120.52
2018-12-24T17:14:25.631Z,102124.93
2018-12-24T17:19:27.702Z,102125.39
2018-12-24T17:24:30.075Z,102123.19
2018-12-24T17:29:32.105Z,102122.33
2018-12-24T17:34:34.722Z,102115.70
2018-12-24T17:39:36.786Z,102116.16
2018-12-24T17:44:39.201Z,102113.52
2018-12-24T17:49:41.250Z,102096.78
2018-12-24T17:54:45.562Z,102116.10
2018-12-24T17:59:47.657Z,102118.33
2018-12-24T18:04:49.649Z,102118.31
2018-12-24T18:09:53.883Z,102130.61
2018-12-24T18:14:56.008Z,102152.97
2018-12-24T18:19:58.335Z,102151.59
2018-12-24T18:25:00.321Z,102154.20
2018-12-24T18:30:02.521Z,102148.47
2018-12-24T18:35:04.590Z,102158.13
2018-12-24T18:40:06.648Z,102163.78
2018-12-24T18:45:08.685Z,102177.88
2018-12-24T18:50:11.185Z,102189.29
2018-12-24T18:55:13.221Z,102212.11
2018-12-24T19:00:16.279Z,102219.89
2018-12-24T19:05:18.445Z,102248.38
2018-12-24T19:10:20.482Z,102255.87
2018-12-24T19:15:24.400Z,102282.62
2018-12-24T19:20:26.431Z,102273.41
2018-12-24T19:25:28.475Z,102269.80
2018-12-24T19:30:31.186Z,102287.22
2018-12-24T19:35:33.325Z,102302.97
2018-12-24T19:40:35.336Z,102301.21
2018-12-24T19:45:37.461Z,102309.05
2018-12-24T19:50:39.719Z,102305.50
2018-12-24T19:55:41.760Z,102311.69
2018-12-24T20:00:43.768Z,102325.02
2018-12-24T20:05:46.116Z,102341.28
2018-12-24T20:10:48.474Z,102336.50
2018-12-24T20:15:50.474Z,102332.98
2018-12-24T20:20:52.510Z,102320.66
2018-12-24T20:25:54.615Z,102315.36
2018-12-24T20:30:56.691Z,102317.47
2018-12-24T20:35:59.014Z,102295.07
2018-12-24T20:41:01.081Z,102290.02
2018-12-24T20:46:03.160Z,102297.52
2018-12-24T20:51:05.148Z,102296.64
2018-12-24T20:56:07.185Z,102293.03
2018-12-24T21:01:09.476Z,102299.22
2018-12-24T21:06:12.330Z,102292.20
2018-12-24T21:11:14.555Z,102305.31
2018-12-24T21:16:16.709Z,102299.61
2018-12-24T21:21:19.015Z,102299.17
2018-12-24T21:26:21.389Z,102307.06
2018-12-24T21:31:23.517Z,102316.31
2018-12-24T21:36:25.801Z,102327.77
2018-12-24T21:41:27.940Z,102317.63
2018-12-24T21:46:30.716Z,102325.17
2018-12-24T21:51:32.750Z,102333.06
2018-12-24T21:56:34.862Z,102343.54
2018-12-24T22:01:36.919Z,102348.25
2018-12-24T22:06:39.079Z,102352.20
2018-12-24T22:11:41.320Z,102353.96
2018-12-24T22:16:43.349Z,102366.55
2018-12-24T22:21:45.517Z,102358.27
2018-12-24T22:26:47.723Z,102352.09
2018-12-24T22:31:50.264Z,102363.98
2018-12-24T22:36:52.293Z,102368.85
2018-12-24T22:41:54.346Z,102351.66
2018-12-24T22:46:56.535Z,102350.78
2018-12-24T22:51:58.632Z,102365.73
2018-12-24T22:57:00.680Z,102360.48
2018-12-24T23:02:02.916Z,102359.20
2018-12-24T23:07:04.995Z,102370.17
2018-12-24T23:12:07.044Z,102372.20
2018-12-24T23:17:09.168Z,102369.72
2018-12-24T23:22:11.324Z,102382.81
2018-12-24T23:27:13.607Z,102381.00
2018-12-24T23:32:15.846Z,102383.08
2018-12-24T23:37:18.024Z,102389.53
2018-12-24T23:42:20.254Z,102383.20
2018-12-24T23:47:22.570Z,102379.88
2018-12-24T23:52:24.681Z,102376.64
2018-12-24T23:57:26.980Z,102374.58
